sensor_id;sensor_type;location;lat;lon;timestamp;temperature;humidity
72650;SHT31;61467;50.674;4.618;2022-12-16T00:00:00;-1.03;70.44
72650;SHT31;61467;50.674;4.618;2022-12-16T00:02:28;-0.75;69.90
72650;SHT31;61467;50.674;4.618;2022-12-16T00:04:55;-0.54;69.25
72650;SHT31;61467;50.674;4.618;2022-12-16T00:07:22;-0.48;69.17
72650;SHT31;61467;50.674;4.618;2022-12-16T00:09:49;-0.38;69.46
72650;SHT31;61467;50.674;4.618;2022-12-16T00:12:16;-0.35;69.18
72650;SHT31;61467;50.674;4.618;2022-12-16T00:14:42;-0.27;69.12
72650;SHT31;61467;50.674;4.618;2022-12-16T00:17:09;-0.22;68.97
72650;SHT31;61467;50.674;4.618;2022-12-16T00:19:37;-0.14;68.84
72650;SHT31;61467;50.674;4.618;2022-12-16T00:22:04;-0.20;68.78
72650;SHT31;61467;50.674;4.618;2022-12-16T00:24:31;-0.28;68.46
72650;SHT31;61467;50.674;4.618;2022-12-16T00:26:58;-0.42;68.70
72650;SHT31;61467;50.674;4.618;2022-12-16T00:29:24;-0.41;69.15
72650;SHT31;61467;50.674;4.618;2022-12-16T00:31:51;-0.14;68.64
72650;SHT31;61467;50.674;4.618;2022-12-16T00:34:18;-0.07;68.05
72650;SHT31;61467;50.674;4.618;2022-12-16T00:36:46;-0.09;68.19
72650;SHT31;61467;50.674;4.618;2022-12-16T00:39:13;0.06;68.19
72650;SHT31;61467;50.674;4.618;2022-12-16T00:41:40;0.11;67.86
72650;SHT31;61467;50.674;4.618;2022-12-16T00:44:07;0.09;68.16
72650;SHT31;61467;50.674;4.618;2022-12-16T00:46:33;0.15;68.17
72650;SHT31;61467;50.674;4.618;2022-12-16T00:49:00;0.09;68.04
72650;SHT31;61467;50.674;4.618;2022-12-16T00:51:27;0.15;67.56
72650;SHT31;61467;50.674;4.618;2022-12-16T00:53:55;0.17;67.58
72650;SHT31;61467;50.674;4.618;2022-12-16T00:56:22;0.25;67.61
72650;SHT31;61467;50.674;4.618;2022-12-16T00:58:50;0.30;67.80
72650;SHT31;61467;50.674;4.618;2022-12-16T01:01:17;0.24;67.49
72650;SHT31;61467;50.674;4.618;2022-12-16T01:03:44;0.30;67.73
72650;SHT31;61467;50.674;4.618;2022-12-16T01:06:13;0.25;67.92
72650;SHT31;61467;50.674;4.618;2022-12-16T01:08:40;0.28;67.92
72650;SHT31;61467;50.674;4.618;2022-12-16T01:11:14;0.31;67.79
72650;SHT31;61467;50.674;4.618;2022-12-16T01:13:41;0.37;67.63
72650;SHT31;61467;50.674;4.618;2022-12-16T01:16:08;0.27;68.09
72650;SHT31;61467;50.674;4.618;2022-12-16T01:18:35;0.40;67.86
72650;SHT31;61467;50.674;4.618;2022-12-16T01:21:03;0.42;67.87
72650;SHT31;61467;50.674;4.618;2022-12-16T01:23:30;0.42;67.63
72650;SHT31;61467;50.674;4.618;2022-12-16T01:25:59;0.45;67.53
72650;SHT31;61467;50.674;4.618;2022-12-16T01:28:27;0.49;67.49
72650;SHT31;61467;50.674;4.618;2022-12-16T01:30:55;0.44;68.11
72650;SHT31;61467;50.674;4.618;2022-12-16T01:33:26;0.51;68.10
72650;SHT31;61467;50.674;4.618;2022-12-16T01:35:58;0.59;68.13
72650;SHT31;61467;50.674;4.618;2022-12-16T01:38:25;0.66;67.85
72650;SHT31;61467;50.674;4.618;2022-12-16T01:40:52;0.58;67.93
72650;SHT31;61467;50.674;4.618;2022-12-16T01:43:23;0.68;68.08
72650;SHT31;61467;50.674;4.618;2022-12-16T01:45:52;0.69;68.09
72650;SHT31;61467;50.674;4.618;2022-12-16T01:48:29;0.69;67.98
72650;SHT31;61467;50.674;4.618;2022-12-16T01:51:02;0.73;67.90
72650;SHT31;61467;50.674;4.618;2022-12-16T01:53:30;0.76;68.20
72650;SHT31;61467;50.674;4.618;2022-12-16T01:55:59;0.72;68.23
72650;SHT31;61467;50.674;4.618;2022-12-16T01:58:29;0.80;68.09
72650;SHT31;61467;50.674;4.618;2022-12-16T02:00:59;0.80;68.25
72650;SHT31;61467;50.674;4.618;2022-12-16T02:03:30;0.52;69.12
72650;SHT31;61467;50.674;4.618;2022-12-16T02:05:58;0.61;68.77
72650;SHT31;61467;50.674;4.618;2022-12-16T02:08:25;0.73;68.61
72650;SHT31;61467;50.674;4.618;2022-12-16T02:11:13;0.83;68.34
72650;SHT31;61467;50.674;4.618;2022-12-16T02:14:01;0.88;68.04
72650;SHT31;61467;50.674;4.618;2022-12-16T02:16:38;0.88;68.14
72650;SHT31;61467;50.674;4.618;2022-12-16T02:19:21;0.93;68.20
72650;SHT31;61467;50.674;4.618;2022-12-16T02:21:58;0.97;68.18
72650;SHT31;61467;50.674;4.618;2022-12-16T02:24:47;0.99;67.93
72650;SHT31;61467;50.674;4.618;2022-12-16T02:27:42;0.97;68.01
72650;SHT31;61467;50.674;4.618;2022-12-16T02:30:38;0.95;67.80
72650;SHT31;61467;50.674;4.618;2022-12-16T02:33:22;0.99;67.69
72650;SHT31;61467;50.674;4.618;2022-12-16T02:35:54;0.93;67.86
72650;SHT31;61467;50.674;4.618;2022-12-16T02:38:29;1.00;67.91
72650;SHT31;61467;50.674;4.618;2022-12-16T02:41:01;1.00;68.04
72650;SHT31;61467;50.674;4.618;2022-12-16T02:43:42;1.03;68.04
72650;SHT31;61467;50.674;4.618;2022-12-16T02:46:16;1.02;68.18
72650;SHT31;61467;50.674;4.618;2022-12-16T02:48:43;0.97;68.22
72650;SHT31;61467;50.674;4.618;2022-12-16T02:51:10;1.00;68.26
72650;SHT31;61467;50.674;4.618;2022-12-16T02:53:38;1.03;68.22
72650;SHT31;61467;50.674;4.618;2022-12-16T02:56:18;1.12;68.13
72650;SHT31;61467;50.674;4.618;2022-12-16T02:58:51;1.12;68.18
72650;SHT31;61467;50.674;4.618;2022-12-16T03:01:28;1.12;68.13
72650;SHT31;61467;50.674;4.618;2022-12-16T03:04:05;1.10;68.04
72650;SHT31;61467;50.674;4.618;2022-12-16T03:06:35;1.12;68.15
72650;SHT31;61467;50.674;4.618;2022-12-16T03:09:06;1.10;68.28
72650;SHT31;61467;50.674;4.618;2022-12-16T03:11:34;0.99;68.59
72650;SHT31;61467;50.674;4.618;2022-12-16T03:14:04;1.07;68.81
72650;SHT31;61467;50.674;4.618;2022-12-16T03:16:34;1.07;68.85
72650;SHT31;61467;50.674;4.618;2022-12-16T03:19:03;1.16;68.64
72650;SHT31;61467;50.674;4.618;2022-12-16T03:21:41;1.19;68.58
72650;SHT31;61467;50.674;4.618;2022-12-16T03:24:11;1.24;69.12
72650;SHT31;61467;50.674;4.618;2022-12-16T03:26:42;1.29;69.59
72650;SHT31;61467;50.674;4.618;2022-12-16T03:29:13;1.26;70.17
72650;SHT31;61467;50.674;4.618;2022-12-16T03:31:48;1.24;70.70
72650;SHT31;61467;50.674;4.618;2022-12-16T03:34:24;1.22;70.98
72650;SHT31;61467;50.674;4.618;2022-12-16T03:36:56;1.23;71.38
72650;SHT31;61467;50.674;4.618;2022-12-16T03:39:25;1.17;71.50
72650;SHT31;61467;50.674;4.618;2022-12-16T03:41:53;1.10;71.60
72650;SHT31;61467;50.674;4.618;2022-12-16T03:44:23;1.19;71.80
72650;SHT31;61467;50.674;4.618;2022-12-16T03:46:52;1.26;71.66
72650;SHT31;61467;50.674;4.618;2022-12-16T03:49:20;1.30;71.52
72650;SHT31;61467;50.674;4.618;2022-12-16T03:51:47;1.31;71.48
72650;SHT31;61467;50.674;4.618;2022-12-16T03:54:13;1.37;71.45
72650;SHT31;61467;50.674;4.618;2022-12-16T03:56:40;1.41;71.44
72650;SHT31;61467;50.674;4.618;2022-12-16T03:59:07;1.39;71.51
72650;SHT31;61467;50.674;4.618;2022-12-16T04:01:35;1.41;71.63
72650;SHT31;61467;50.674;4.618;2022-12-16T04:04:04;1.40;72.04
72650;SHT31;61467;50.674;4.618;2022-12-16T04:06:31;1.36;72.43
72650;SHT31;61467;50.674;4.618;2022-12-16T04:08:58;1.44;72.42
72650;SHT31;61467;50.674;4.618;2022-12-16T04:11:25;1.34;72.61
72650;SHT31;61467;50.674;4.618;2022-12-16T04:14:09;1.36;73.04
72650;SHT31;61467;50.674;4.618;2022-12-16T04:16:53;1.37;73.13
72650;SHT31;61467;50.674;4.618;2022-12-16T04:19:50;1.43;73.25
72650;SHT31;61467;50.674;4.618;2022-12-16T04:22:37;1.39;73.30
72650;SHT31;61467;50.674;4.618;2022-12-16T04:25:27;1.15;74.52
72650;SHT31;61467;50.674;4.618;2022-12-16T04:27:55;0.76;76.38
72650;SHT31;61467;50.674;4.618;2022-12-16T04:30:23;1.04;75.84
72650;SHT31;61467;50.674;4.618;2022-12-16T04:32:56;1.06;76.29
72650;SHT31;61467;50.674;4.618;2022-12-16T04:35:43;1.19;75.90
72650;SHT31;61467;50.674;4.618;2022-12-16T04:38:27;1.09;76.40
72650;SHT31;61467;50.674;4.618;2022-12-16T04:41:12;1.03;76.58
72650;SHT31;61467;50.674;4.618;2022-12-16T04:43:56;0.89;77.77
72650;SHT31;61467;50.674;4.618;2022-12-16T04:46:40;0.96;77.67
72650;SHT31;61467;50.674;4.618;2022-12-16T04:49:25;1.22;76.87
72650;SHT31;61467;50.674;4.618;2022-12-16T04:52:10;1.20;76.82
72650;SHT31;61467;50.674;4.618;2022-12-16T04:54:54;1.23;76.91
72650;SHT31;61467;50.674;4.618;2022-12-16T04:57:38;1.20;77.42
72650;SHT31;61467;50.674;4.618;2022-12-16T05:00:23;1.43;76.97
72650;SHT31;61467;50.674;4.618;2022-12-16T05:03:08;1.41;76.76
72650;SHT31;61467;50.674;4.618;2022-12-16T05:05:48;1.24;76.99
72650;SHT31;61467;50.674;4.618;2022-12-16T05:08:34;1.36;77.14
72650;SHT31;61467;50.674;4.618;2022-12-16T05:11:18;1.43;76.64
72650;SHT31;61467;50.674;4.618;2022-12-16T05:14:02;1.50;77.07
72650;SHT31;61467;50.674;4.618;2022-12-16T05:16:47;1.29;77.94
72650;SHT31;61467;50.674;4.618;2022-12-16T05:19:31;1.30;77.89
72650;SHT31;61467;50.674;4.618;2022-12-16T05:22:15;1.31;78.37
72650;SHT31;61467;50.674;4.618;2022-12-16T05:25:01;1.31;78.56
72650;SHT31;61467;50.674;4.618;2022-12-16T05:27:50;1.33;78.71
72650;SHT31;61467;50.674;4.618;2022-12-16T05:30:34;1.23;78.85
72650;SHT31;61467;50.674;4.618;2022-12-16T05:33:19;1.10;80.32
72650;SHT31;61467;50.674;4.618;2022-12-16T05:36:04;1.19;80.13
72650;SHT31;61467;50.674;4.618;2022-12-16T05:38:48;1.16;80.87
72650;SHT31;61467;50.674;4.618;2022-12-16T05:41:34;1.23;80.66
72650;SHT31;61467;50.674;4.618;2022-12-16T05:44:18;1.26;80.46
72650;SHT31;61467;50.674;4.618;2022-12-16T05:47:10;1.33;80.50
72650;SHT31;61467;50.674;4.618;2022-12-16T05:49:54;1.44;80.05
72650;SHT31;61467;50.674;4.618;2022-12-16T05:52:38;1.41;80.19
72650;SHT31;61467;50.674;4.618;2022-12-16T05:55:23;1.41;80.49
72650;SHT31;61467;50.674;4.618;2022-12-16T05:58:08;1.30;80.79
72650;SHT31;61467;50.674;4.618;2022-12-16T06:00:52;1.47;80.36
72650;SHT31;61467;50.674;4.618;2022-12-16T06:03:37;1.31;80.91
72650;SHT31;61467;50.674;4.618;2022-12-16T06:06:21;1.41;82.10
72650;SHT31;61467;50.674;4.618;2022-12-16T06:09:05;1.34;81.99
72650;SHT31;61467;50.674;4.618;2022-12-16T06:11:50;1.46;81.74
72650;SHT31;61467;50.674;4.618;2022-12-16T06:14:50;1.26;83.00
72650;SHT31;61467;50.674;4.618;2022-12-16T06:17:34;1.44;82.73
72650;SHT31;61467;50.674;4.618;2022-12-16T06:20:23;1.46;82.95
72650;SHT31;61467;50.674;4.618;2022-12-16T06:23:07;1.57;82.39
72650;SHT31;61467;50.674;4.618;2022-12-16T06:25:52;1.58;82.51
72650;SHT31;61467;50.674;4.618;2022-12-16T06:28:36;1.65;82.38
72650;SHT31;61467;50.674;4.618;2022-12-16T06:31:22;1.61;82.60
72650;SHT31;61467;50.674;4.618;2022-12-16T06:34:07;1.70;82.86
72650;SHT31;61467;50.674;4.618;2022-12-16T06:36:51;1.75;82.97
72650;SHT31;61467;50.674;4.618;2022-12-16T06:39:35;1.83;82.40
72650;SHT31;61467;50.674;4.618;2022-12-16T06:42:19;1.79;82.76
72650;SHT31;61467;50.674;4.618;2022-12-16T06:45:04;1.60;83.15
72650;SHT31;61467;50.674;4.618;2022-12-16T06:47:49;1.70;82.82
72650;SHT31;61467;50.674;4.618;2022-12-16T06:50:34;1.78;82.34
72650;SHT31;61467;50.674;4.618;2022-12-16T06:53:18;1.86;82.20
72650;SHT31;61467;50.674;4.618;2022-12-16T06:55:59;1.60;82.87
72650;SHT31;61467;50.674;4.618;2022-12-16T06:58:43;1.46;83.57
72650;SHT31;61467;50.674;4.618;2022-12-16T07:01:27;1.47;83.52
72650;SHT31;61467;50.674;4.618;2022-12-16T07:04:13;1.60;83.40
72650;SHT31;61467;50.674;4.618;2022-12-16T07:06:57;1.51;83.23
72650;SHT31;61467;50.674;4.618;2022-12-16T07:09:42;1.55;83.57
72650;SHT31;61467;50.674;4.618;2022-12-16T07:12:26;1.60;83.33
72650;SHT31;61467;50.674;4.618;2022-12-16T07:15:10;1.55;83.85
72650;SHT31;61467;50.674;4.618;2022-12-16T07:17:54;1.67;83.61
72650;SHT31;61467;50.674;4.618;2022-12-16T07:20:40;1.78;83.29
72650;SHT31;61467;50.674;4.618;2022-12-16T07:23:24;1.83;82.60
72650;SHT31;61467;50.674;4.618;2022-12-16T07:26:09;1.79;82.96
72650;SHT31;61467;50.674;4.618;2022-12-16T07:28:53;1.82;82.78
72650;SHT31;61467;50.674;4.618;2022-12-16T07:31:37;1.64;83.64
72650;SHT31;61467;50.674;4.618;2022-12-16T07:34:21;1.54;83.97
72650;SHT31;61467;50.674;4.618;2022-12-16T07:37:06;1.60;83.93
72650;SHT31;61467;50.674;4.618;2022-12-16T07:39:50;1.64;83.96
72650;SHT31;61467;50.674;4.618;2022-12-16T07:42:34;1.67;83.71
72650;SHT31;61467;50.674;4.618;2022-12-16T07:45:18;1.74;83.35
72650;SHT31;61467;50.674;4.618;2022-12-16T07:48:01;1.88;82.90
72650;SHT31;61467;50.674;4.618;2022-12-16T07:50:45;1.95;82.70
72650;SHT31;61467;50.674;4.618;2022-12-16T07:53:31;1.94;82.56
72650;SHT31;61467;50.674;4.618;2022-12-16T07:56:15;1.95;82.79
72650;SHT31;61467;50.674;4.618;2022-12-16T07:58:59;1.75;83.49
72650;SHT31;61467;50.674;4.618;2022-12-16T08:01:43;1.70;83.75
72650;SHT31;61467;50.674;4.618;2022-12-16T08:04:27;1.61;84.40
72650;SHT31;61467;50.674;4.618;2022-12-16T08:07:13;1.50;84.32
72650;SHT31;61467;50.674;4.618;2022-12-16T08:09:58;1.37;85.06
72650;SHT31;61467;50.674;4.618;2022-12-16T08:12:43;1.39;85.61
72650;SHT31;61467;50.674;4.618;2022-12-16T08:15:27;1.74;84.28
72650;SHT31;61467;50.674;4.618;2022-12-16T08:18:11;1.61;84.28
72650;SHT31;61467;50.674;4.618;2022-12-16T08:20:55;1.67;83.92
72650;SHT31;61467;50.674;4.618;2022-12-16T08:23:40;1.65;83.76
72650;SHT31;61467;50.674;4.618;2022-12-16T08:26:25;1.79;83.50
72650;SHT31;61467;50.674;4.618;2022-12-16T08:29:10;1.91;82.83
72650;SHT31;61467;50.674;4.618;2022-12-16T08:31:54;1.78;82.65
72650;SHT31;61467;50.674;4.618;2022-12-16T08:34:39;1.72;83.67
72650;SHT31;61467;50.674;4.618;2022-12-16T08:37:22;1.95;83.36
72650;SHT31;61467;50.674;4.618;2022-12-16T08:40:07;1.86;83.04
72650;SHT31;61467;50.674;4.618;2022-12-16T08:42:54;1.99;82.99
72650;SHT31;61467;50.674;4.618;2022-12-16T08:45:39;2.12;82.31
72650;SHT31;61467;50.674;4.618;2022-12-16T08:48:23;2.08;81.97
72650;SHT31;61467;50.674;4.618;2022-12-16T08:51:07;1.94;81.91
72650;SHT31;61467;50.674;4.618;2022-12-16T08:53:51;1.83;82.39
72650;SHT31;61467;50.674;4.618;2022-12-16T08:56:35;1.94;82.48
72650;SHT31;61467;50.674;4.618;2022-12-16T08:59:20;1.85;82.43
72650;SHT31;61467;50.674;4.618;2022-12-16T09:02:18;1.82;82.28
72650;SHT31;61467;50.674;4.618;2022-12-16T09:05:10;1.94;82.10
72650;SHT31;61467;50.674;4.618;2022-12-16T09:07:58;1.92;82.84
72650;SHT31;61467;50.674;4.618;2022-12-16T09:10:43;1.98;82.11
72650;SHT31;61467;50.674;4.618;2022-12-16T09:13:27;1.99;81.78
72650;SHT31;61467;50.674;4.618;2022-12-16T09:16:11;1.70;82.29
72650;SHT31;61467;50.674;4.618;2022-12-16T09:18:56;1.88;82.50
72650;SHT31;61467;50.674;4.618;2022-12-16T09:21:41;2.02;82.21
72650;SHT31;61467;50.674;4.618;2022-12-16T09:24:25;2.05;81.76
72650;SHT31;61467;50.674;4.618;2022-12-16T09:27:10;2.16;81.63
72650;SHT31;61467;50.674;4.618;2022-12-16T09:29:54;2.05;81.93
72650;SHT31;61467;50.674;4.618;2022-12-16T09:32:43;1.89;82.13
72650;SHT31;61467;50.674;4.618;2022-12-16T09:35:27;1.60;83.05
72650;SHT31;61467;50.674;4.618;2022-12-16T09:38:12;1.79;82.55
72650;SHT31;61467;50.674;4.618;2022-12-16T09:40:57;1.95;82.39
72650;SHT31;61467;50.674;4.618;2022-12-16T09:43:53;1.98;81.69
72650;SHT31;61467;50.674;4.618;2022-12-16T09:46:46;2.10;81.66
72650;SHT31;61467;50.674;4.618;2022-12-16T09:49:41;2.26;81.19
72650;SHT31;61467;50.674;4.618;2022-12-16T09:52:27;2.08;81.11
72650;SHT31;61467;50.674;4.618;2022-12-16T09:55:21;1.85;82.21
72650;SHT31;61467;50.674;4.618;2022-12-16T09:58:07;1.86;81.95
72650;SHT31;61467;50.674;4.618;2022-12-16T10:00:52;1.99;81.84
72650;SHT31;61467;50.674;4.618;2022-12-16T10:03:38;2.10;81.27
72650;SHT31;61467;50.674;4.618;2022-12-16T10:06:31;2.25;80.90
72650;SHT31;61467;50.674;4.618;2022-12-16T10:09:24;2.37;80.58
72650;SHT31;61467;50.674;4.618;2022-12-16T10:12:18;2.28;80.83
72650;SHT31;61467;50.674;4.618;2022-12-16T10:15:13;2.28;80.84
72650;SHT31;61467;50.674;4.618;2022-12-16T10:18:04;2.23;80.74
72650;SHT31;61467;50.674;4.618;2022-12-16T10:20:55;2.32;80.82
72650;SHT31;61467;50.674;4.618;2022-12-16T10:23:46;2.22;80.96
72650;SHT31;61467;50.674;4.618;2022-12-16T10:26:42;2.25;81.02
72650;SHT31;61467;50.674;4.618;2022-12-16T10:29:30;2.13;81.54
72650;SHT31;61467;50.674;4.618;2022-12-16T10:32:18;2.26;80.99
72650;SHT31;61467;50.674;4.618;2022-12-16T10:35:22;2.25;81.26
72650;SHT31;61467;50.674;4.618;2022-12-16T10:38:14;2.12;81.20
72650;SHT31;61467;50.674;4.618;2022-12-16T10:41:03;1.94;81.72
72650;SHT31;61467;50.674;4.618;2022-12-16T10:43:50;1.94;81.72
72650;SHT31;61467;50.674;4.618;2022-12-16T10:46:34;2.06;81.42
72650;SHT31;61467;50.674;4.618;2022-12-16T10:49:19;2.03;81.12
72650;SHT31;61467;50.674;4.618;2022-12-16T10:52:04;2.22;81.09
72650;SHT31;61467;50.674;4.618;2022-12-16T10:54:55;2.06;80.30
72650;SHT31;61467;50.674;4.618;2022-12-16T10:57:50;2.22;80.16
72650;SHT31;61467;50.674;4.618;2022-12-16T11:00:40;2.09;80.06
72650;SHT31;61467;50.674;4.618;2022-12-16T11:03:27;2.06;80.10
72650;SHT31;61467;50.674;4.618;2022-12-16T11:06:15;2.01;80.57
72650;SHT31;61467;50.674;4.618;2022-12-16T11:09:23;2.26;80.17
72650;SHT31;61467;50.674;4.618;2022-12-16T11:12:20;2.33;79.83
72650;SHT31;61467;50.674;4.618;2022-12-16T11:15:19;2.46;79.09
72650;SHT31;61467;50.674;4.618;2022-12-16T11:18:07;2.15;78.40
72650;SHT31;61467;50.674;4.618;2022-12-16T11:21:10;2.32;78.47
72650;SHT31;61467;50.674;4.618;2022-12-16T11:24:11;2.40;77.89
72650;SHT31;61467;50.674;4.618;2022-12-16T11:26:57;2.49;77.26
72650;SHT31;61467;50.674;4.618;2022-12-16T11:29:49;2.43;77.07
72650;SHT31;61467;50.674;4.618;2022-12-16T11:32:36;2.28;76.85
72650;SHT31;61467;50.674;4.618;2022-12-16T11:35:25;2.33;77.16
72650;SHT31;61467;50.674;4.618;2022-12-16T11:38:17;2.40;76.75
72650;SHT31;61467;50.674;4.618;2022-12-16T11:41:04;2.37;77.06
72650;SHT31;61467;50.674;4.618;2022-12-16T11:43:50;2.40;77.60
72650;SHT31;61467;50.674;4.618;2022-12-16T11:46:34;2.37;77.26
72650;SHT31;61467;50.674;4.618;2022-12-16T11:49:24;2.58;76.87
72650;SHT31;61467;50.674;4.618;2022-12-16T11:52:10;2.40;77.12
72650;SHT31;61467;50.674;4.618;2022-12-16T11:55:00;2.47;76.64
72650;SHT31;61467;50.674;4.618;2022-12-16T11:57:48;2.57;76.74
72650;SHT31;61467;50.674;4.618;2022-12-16T12:00:52;2.49;76.44
72650;SHT31;61467;50.674;4.618;2022-12-16T12:03:42;2.61;76.35
72650;SHT31;61467;50.674;4.618;2022-12-16T12:06:31;2.47;75.95
72650;SHT31;61467;50.674;4.618;2022-12-16T12:09:19;2.61;76.07
72650;SHT31;61467;50.674;4.618;2022-12-16T12:12:11;2.71;75.31
72650;SHT31;61467;50.674;4.618;2022-12-16T12:15:05;2.67;74.71
72650;SHT31;61467;50.674;4.618;2022-12-16T12:17:57;2.67;74.84
72650;SHT31;61467;50.674;4.618;2022-12-16T12:20:49;2.73;75.01
72650;SHT31;61467;50.674;4.618;2022-12-16T12:23:44;2.67;75.16
72650;SHT31;61467;50.674;4.618;2022-12-16T12:26:32;2.41;76.14
72650;SHT31;61467;50.674;4.618;2022-12-16T12:29:21;2.57;75.93
72650;SHT31;61467;50.674;4.618;2022-12-16T12:32:16;2.43;76.37
72650;SHT31;61467;50.674;4.618;2022-12-16T12:35:09;2.28;76.18
72650;SHT31;61467;50.674;4.618;2022-12-16T12:38:05;2.29;77.00
72650;SHT31;61467;50.674;4.618;2022-12-16T12:41:00;2.33;75.92
72650;SHT31;61467;50.674;4.618;2022-12-16T12:43:54;2.68;74.39
72650;SHT31;61467;50.674;4.618;2022-12-16T12:46:43;2.83;73.90
72650;SHT31;61467;50.674;4.618;2022-12-16T12:49:34;2.87;73.19
72650;SHT31;61467;50.674;4.618;2022-12-16T12:52:43;2.94;73.12
72650;SHT31;61467;50.674;4.618;2022-12-16T12:55:38;2.74;73.55
72650;SHT31;61467;50.674;4.618;2022-12-16T12:58:32;2.54;74.57
72650;SHT31;61467;50.674;4.618;2022-12-16T13:01:20;2.77;74.47
72650;SHT31;61467;50.674;4.618;2022-12-16T13:04:09;3.04;73.78
72650;SHT31;61467;50.674;4.618;2022-12-16T13:06:56;3.09;73.02
72650;SHT31;61467;50.674;4.618;2022-12-16T13:09:41;2.98;72.70
72650;SHT31;61467;50.674;4.618;2022-12-16T13:12:28;3.02;72.68
72650;SHT31;61467;50.674;4.618;2022-12-16T13:15:32;2.94;72.57
72650;SHT31;61467;50.674;4.618;2022-12-16T13:18:27;2.98;71.60
72650;SHT31;61467;50.674;4.618;2022-12-16T13:21:43;3.16;71.27
72650;SHT31;61467;50.674;4.618;2022-12-16T13:24:37;3.01;71.01
72650;SHT31;61467;50.674;4.618;2022-12-16T13:27:22;3.04;71.44
72650;SHT31;61467;50.674;4.618;2022-12-16T13:30:21;3.07;71.26
72650;SHT31;61467;50.674;4.618;2022-12-16T13:33:19;2.97;71.94
72650;SHT31;61467;50.674;4.618;2022-12-16T13:36:05;2.87;72.46
72650;SHT31;61467;50.674;4.618;2022-12-16T13:38:52;3.12;72.25
72650;SHT31;61467;50.674;4.618;2022-12-16T13:41:49;3.12;72.01
72650;SHT31;61467;50.674;4.618;2022-12-16T13:44:57;3.15;71.39
72650;SHT31;61467;50.674;4.618;2022-12-16T13:48:02;3.18;70.76
72650;SHT31;61467;50.674;4.618;2022-12-16T13:50:49;3.19;70.72
72650;SHT31;61467;50.674;4.618;2022-12-16T13:53:38;3.23;70.62
72650;SHT31;61467;50.674;4.618;2022-12-16T13:56:25;3.31;70.41
72650;SHT31;61467;50.674;4.618;2022-12-16T13:59:15;3.39;70.17
72650;SHT31;61467;50.674;4.618;2022-12-16T14:02:10;3.43;70.06
72650;SHT31;61467;50.674;4.618;2022-12-16T14:04:58;3.09;70.52
72650;SHT31;61467;50.674;4.618;2022-12-16T14:07:43;3.19;70.70
72650;SHT31;61467;50.674;4.618;2022-12-16T14:10:32;3.12;70.82
72650;SHT31;61467;50.674;4.618;2022-12-16T14:13:20;3.28;70.41
72650;SHT31;61467;50.674;4.618;2022-12-16T14:16:09;3.19;70.05
72650;SHT31;61467;50.674;4.618;2022-12-16T14:19:08;3.32;69.97
72650;SHT31;61467;50.674;4.618;2022-12-16T14:22:01;3.44;69.70
72650;SHT31;61467;50.674;4.618;2022-12-16T14:24:49;3.42;69.28
72650;SHT31;61467;50.674;4.618;2022-12-16T14:27:34;3.39;69.39
72650;SHT31;61467;50.674;4.618;2022-12-16T14:30:20;3.32;69.55
72650;SHT31;61467;50.674;4.618;2022-12-16T14:33:16;3.22;69.93
72650;SHT31;61467;50.674;4.618;2022-12-16T14:36:00;3.35;69.94
72650;SHT31;61467;50.674;4.618;2022-12-16T14:38:48;3.11;70.31
72650;SHT31;61467;50.674;4.618;2022-12-16T14:41:32;3.22;69.70
72650;SHT31;61467;50.674;4.618;2022-12-16T14:44:19;3.28;69.67
72650;SHT31;61467;50.674;4.618;2022-12-16T14:47:04;3.33;69.38
72650;SHT31;61467;50.674;4.618;2022-12-16T14:49:50;3.26;68.89
72650;SHT31;61467;50.674;4.618;2022-12-16T14:52:35;3.12;68.80
72650;SHT31;61467;50.674;4.618;2022-12-16T14:55:27;3.25;68.90
72650;SHT31;61467;50.674;4.618;2022-12-16T14:58:12;3.22;68.60
72650;SHT31;61467;50.674;4.618;2022-12-16T15:00:59;3.29;68.06
72650;SHT31;61467;50.674;4.618;2022-12-16T15:03:45;3.33;68.35
72650;SHT31;61467;50.674;4.618;2022-12-16T15:06:32;3.26;68.38
72650;SHT31;61467;50.674;4.618;2022-12-16T15:09:22;3.35;68.28
72650;SHT31;61467;50.674;4.618;2022-12-16T15:12:18;3.38;68.39
72650;SHT31;61467;50.674;4.618;2022-12-16T15:15:07;3.38;68.89
72650;SHT31;61467;50.674;4.618;2022-12-16T15:17:54;3.38;68.84
72650;SHT31;61467;50.674;4.618;2022-12-16T15:20:53;3.35;68.41
72650;SHT31;61467;50.674;4.618;2022-12-16T15:23:39;3.31;68.14
72650;SHT31;61467;50.674;4.618;2022-12-16T15:26:27;3.35;67.70
72650;SHT31;61467;50.674;4.618;2022-12-16T15:29:32;3.25;67.98
72650;SHT31;61467;50.674;4.618;2022-12-16T15:32:31;3.33;67.56
72650;SHT31;61467;50.674;4.618;2022-12-16T15:35:28;3.31;67.48
72650;SHT31;61467;50.674;4.618;2022-12-16T15:38:20;3.26;67.84
72650;SHT31;61467;50.674;4.618;2022-12-16T15:41:19;3.21;68.53
72650;SHT31;61467;50.674;4.618;2022-12-16T15:44:03;3.16;68.57
72650;SHT31;61467;50.674;4.618;2022-12-16T15:46:48;3.15;68.29
72650;SHT31;61467;50.674;4.618;2022-12-16T15:49:34;3.09;68.64
72650;SHT31;61467;50.674;4.618;2022-12-16T15:52:31;3.11;68.66
72650;SHT31;61467;50.674;4.618;2022-12-16T15:55:27;3.05;68.64
72650;SHT31;61467;50.674;4.618;2022-12-16T15:58:15;3.01;69.38
72650;SHT31;61467;50.674;4.618;2022-12-16T16:01:01;2.91;69.15
72650;SHT31;61467;50.674;4.618;2022-12-16T16:03:48;2.94;69.12
72650;SHT31;61467;50.674;4.618;2022-12-16T16:06:33;2.97;68.88
72650;SHT31;61467;50.674;4.618;2022-12-16T16:09:21;2.91;68.70
72650;SHT31;61467;50.674;4.618;2022-12-16T16:12:07;2.92;68.86
72650;SHT31;61467;50.674;4.618;2022-12-16T16:14:51;2.88;69.12
72650;SHT31;61467;50.674;4.618;2022-12-16T16:17:48;2.81;69.00
72650;SHT31;61467;50.674;4.618;2022-12-16T16:20:34;2.71;69.15
72650;SHT31;61467;50.674;4.618;2022-12-16T16:23:18;2.65;69.18
72650;SHT31;61467;50.674;4.618;2022-12-16T16:26:20;2.61;69.67
72650;SHT31;61467;50.674;4.618;2022-12-16T16:29:05;2.54;69.54
72650;SHT31;61467;50.674;4.618;2022-12-16T16:31:49;2.49;69.61
72650;SHT31;61467;50.674;4.618;2022-12-16T16:34:34;2.41;69.87
72650;SHT31;61467;50.674;4.618;2022-12-16T16:37:20;2.44;69.83
72650;SHT31;61467;50.674;4.618;2022-12-16T16:40:15;2.40;70.25
72650;SHT31;61467;50.674;4.618;2022-12-16T16:42:59;2.40;70.61
72650;SHT31;61467;50.674;4.618;2022-12-16T16:45:43;2.37;70.77
72650;SHT31;61467;50.674;4.618;2022-12-16T16:48:27;2.41;70.77
72650;SHT31;61467;50.674;4.618;2022-12-16T16:51:12;2.39;70.99
72650;SHT31;61467;50.674;4.618;2022-12-16T16:53:58;2.41;70.74
72650;SHT31;61467;50.674;4.618;2022-12-16T16:56:42;2.43;70.97
72650;SHT31;61467;50.674;4.618;2022-12-16T16:59:25;2.54;71.03
72650;SHT31;61467;50.674;4.618;2022-12-16T17:02:15;2.46;70.88
72650;SHT31;61467;50.674;4.618;2022-12-16T17:04:59;2.47;70.82
72650;SHT31;61467;50.674;4.618;2022-12-16T17:07:43;2.16;71.47
72650;SHT31;61467;50.674;4.618;2022-12-16T17:10:29;2.46;72.05
72650;SHT31;61467;50.674;4.618;2022-12-16T17:13:13;2.51;70.84
72650;SHT31;61467;50.674;4.618;2022-12-16T17:15:57;2.39;70.85
72650;SHT31;61467;50.674;4.618;2022-12-16T17:18:41;2.44;70.85
72650;SHT31;61467;50.674;4.618;2022-12-16T17:21:25;2.40;70.99
72650;SHT31;61467;50.674;4.618;2022-12-16T17:24:09;2.46;70.83
72650;SHT31;61467;50.674;4.618;2022-12-16T17:26:54;2.41;70.97